createdAt,value
2022-10-03T00:03:01.632Z,0.38
2022-10-03T00:05:43.513Z,0.60
2022-10-03T00:08:27.453Z,0.52
2022-10-03T00:11:08.144Z,0.47
2022-10-03T00:13:48.120Z,0.30
2022-10-03T00:16:24.147Z,0.55
2022-10-03T00:19:02.258Z,0.50
2022-10-03T00:21:42.098Z,0.35
2022-10-03T00:24:24.036Z,0.45
2022-10-03T00:26:58.261Z,0.30
2022-10-03T00:29:51.483Z,0.50
2022-10-03T00:32:31.844Z,0.35
2022-10-03T00:35:16.509Z,0.40
2022-10-03T00:37:57.544Z,0.57
2022-10-03T00:41:06.532Z,0.52
2022-10-03T00:44:09.752Z,0.40
2022-10-03T00:47:17.002Z,0.40
2022-10-03T00:50:08.386Z,0.35
2022-10-03T00:52:57.118Z,0.50
2022-10-03T00:55:37.910Z,0.35
2022-10-03T00:58:26.715Z,0.43
2022-10-03T01:01:03.597Z,0.60
2022-10-03T01:03:47.413Z,0.30
2022-10-03T01:06:27.150Z,0.50
2022-10-03T01:09:12.964Z,0.65
2022-10-03T01:12:00.373Z,0.40
2022-10-03T01:14:57.488Z,0.40
2022-10-03T01:17:35.547Z,0.47
2022-10-03T01:20:35.021Z,0.40
2022-10-03T01:23:34.013Z,0.50
2022-10-03T01:26:16.834Z,0.60
2022-10-03T01:29:12.185Z,0.40
2022-10-03T01:31:48.407Z,0.50
2022-10-03T01:34:27.227Z,0.32
2022-10-03T01:37:06.465Z,0.30
2022-10-03T01:39:43.866Z,0.30
2022-10-03T01:42:20.632Z,0.45
2022-10-03T01:45:10.418Z,0.50
2022-10-03T01:47:49.763Z,0.50
2022-10-03T01:50:26.744Z,0.50
2022-10-03T01:53:05.177Z,0.30
2022-10-03T01:55:42.866Z,0.20
2022-10-03T01:58:20.798Z,0.50
2022-10-03T02:00:58.150Z,0.40
2022-10-03T02:03:34.445Z,0.50
2022-10-03T02:06:12.661Z,0.40
2022-10-03T02:08:56.660Z,0.50
2022-10-03T02:11:33.565Z,0.40
2022-10-03T02:14:16.609Z,0.40
2022-10-03T02:16:57.562Z,0.38
2022-10-03T02:19:31.211Z,0.40
2022-10-03T02:22:03.095Z,0.52
2022-10-03T02:24:47.528Z,0.40
2022-10-03T02:27:43.928Z,0.40
2022-10-03T02:30:21.570Z,0.40
2022-10-03T02:33:35.052Z,0.43
2022-10-03T02:36:30.523Z,0.40
2022-10-03T02:39:28.546Z,0.47
2022-10-03T02:42:41.368Z,0.50
2022-10-03T02:45:43.700Z,0.40
2022-10-03T02:48:39.523Z,0.50
2022-10-03T02:51:38.351Z,0.40
2022-10-03T02:54:55.020Z,0.32
2022-10-03T02:57:57.394Z,0.40
2022-10-03T03:00:39.732Z,0.45
2022-10-03T03:03:48.333Z,0.38
2022-10-03T03:09:51.649Z,0.55
2022-10-03T03:12:51.740Z,0.50
2022-10-03T03:16:14.640Z,0.50
2022-10-03T03:18:54.547Z,0.40
2022-10-03T03:21:35.377Z,0.52
2022-10-03T03:24:22.247Z,0.40
2022-10-03T03:27:14.804Z,0.47
2022-10-03T03:29:51.509Z,0.30
2022-10-03T03:32:31.433Z,0.50
2022-10-03T03:35:12.996Z,0.40
2022-10-03T03:37:53.623Z,0.60
2022-10-03T03:40:35.503Z,0.40
2022-10-03T03:43:24.130Z,0.40
2022-10-03T03:46:12.604Z,0.57
2022-10-03T03:49:08.437Z,0.40
2022-10-03T03:51:47.060Z,0.52
2022-10-03T03:54:50.755Z,0.40
2022-10-03T03:57:46.649Z,0.50
2022-10-03T04:00:19.815Z,0.47
2022-10-03T04:03:06.888Z,0.40
2022-10-03T04:05:55.724Z,0.43
2022-10-03T04:08:43.397Z,0.40
2022-10-03T04:11:23.648Z,0.50
2022-10-03T04:14:19.564Z,0.38
2022-10-03T04:17:42.824Z,0.40
2022-10-03T04:20:27.463Z,0.60
2022-10-03T04:23:12.010Z,0.60
2022-10-03T04:26:12.437Z,0.52
2022-10-03T04:29:00.764Z,0.40
2022-10-03T04:31:44.311Z,0.47
2022-10-03T04:34:26.241Z,0.32
2022-10-03T04:37:09.356Z,0.60
2022-10-03T04:39:48.794Z,0.60
2022-10-03T04:42:35.771Z,0.50
2022-10-03T04:45:28.957Z,0.40
2022-10-03T04:48:07.297Z,0.52
2022-10-03T04:50:43.792Z,0.50
2022-10-03T04:53:25.053Z,0.40
2022-10-03T04:56:03.156Z,0.50
2022-10-03T04:58:38.957Z,0.50
2022-10-03T05:01:17.297Z,0.40
2022-10-03T05:04:01.942Z,0.60
2022-10-03T05:06:39.209Z,0.55
2022-10-03T05:09:24.619Z,0.47
2022-10-03T05:12:06.581Z,0.50
2022-10-03T05:15:02.652Z,0.43
2022-10-03T05:17:43.858Z,0.50
2022-10-03T05:20:23.993Z,0.60
2022-10-03T05:23:03.914Z,0.50
2022-10-03T05:25:55.210Z,0.60
2022-10-03T05:28:36.082Z,0.80
2022-10-03T05:31:24.466Z,0.85
2022-10-03T05:34:03.597Z,0.80
2022-10-03T05:36:47.624Z,1.02
2022-10-03T05:39:42.791Z,1.40
2022-10-03T05:42:51.153Z,1.00
2022-10-03T05:45:30.633Z,1.05
2022-10-03T05:48:15.868Z,0.90
2022-10-03T05:51:13.510Z,0.90
2022-10-03T05:54:13.812Z,0.82
2022-10-03T05:57:16.141Z,0.68
2022-10-03T06:00:06.699Z,0.80
2022-10-03T06:03:03.838Z,0.50
2022-10-03T06:05:47.742Z,0.60
2022-10-03T06:08:48.622Z,0.70
2022-10-03T06:11:40.936Z,0.60
2022-10-03T06:14:35.535Z,0.75
2022-10-03T06:17:34.387Z,0.60
2022-10-03T06:20:18.479Z,0.60
2022-10-03T06:23:14.859Z,0.63
2022-10-03T06:26:29.411Z,0.60
2022-10-03T06:29:40.436Z,0.60
2022-10-03T06:32:51.534Z,0.80
2022-10-03T06:36:04.155Z,0.47
2022-10-03T06:39:01.431Z,0.60
2022-10-03T06:42:21.163Z,0.65
2022-10-03T06:45:31.018Z,0.60
2022-10-03T06:48:22.294Z,0.50
2022-10-03T06:51:01.060Z,0.70
2022-10-03T06:54:18.154Z,0.70
2022-10-03T06:57:07.507Z,0.95
2022-10-03T06:59:54.854Z,0.65
2022-10-03T07:02:57.723Z,0.63
2022-10-03T07:09:13.460Z,0.65
2022-10-03T07:12:13.429Z,0.90
2022-10-03T07:15:07.466Z,0.90
2022-10-03T07:17:55.219Z,1.10
2022-10-03T07:21:03.981Z,1.55
2022-10-03T07:24:03.814Z,1.20
2022-10-03T07:26:56.571Z,0.98
2022-10-03T07:29:38.286Z,1.40
2022-10-03T07:32:31.802Z,1.40
2022-10-03T07:35:53.187Z,1.40
2022-10-03T07:38:59.515Z,1.20
2022-10-03T07:41:48.139Z,1.27
2022-10-03T07:48:27.675Z,0.90
2022-10-03T07:51:15.392Z,1.40
2022-10-03T07:54:36.147Z,1.52
2022-10-03T07:57:38.362Z,1.50
2022-10-03T08:00:23.086Z,1.77
2022-10-03T08:03:51.252Z,1.70
2022-10-03T08:06:34.600Z,2.05
2022-10-03T08:09:33.859Z,1.60
2022-10-03T08:12:43.498Z,1.80
2022-10-03T08:15:26.040Z,1.60
2022-10-03T08:18:23.424Z,1.70
2022-10-03T08:20:57.670Z,1.70
2022-10-03T08:24:05.494Z,1.92
2022-10-03T08:27:03.452Z,1.75
2022-10-03T08:29:58.429Z,1.90
2022-10-03T08:33:00.912Z,2.05
2022-10-03T08:36:18.166Z,2.08
2022-10-03T08:39:14.575Z,1.83
2022-10-03T08:42:34.420Z,1.88
2022-10-03T08:45:57.698Z,1.92
2022-10-03T08:49:02.395Z,2.10
2022-10-03T08:52:00.679Z,1.88
2022-10-03T08:54:53.830Z,2.10
2022-10-03T08:58:08.148Z,1.83
2022-10-03T09:00:58.859Z,2.15
2022-10-03T09:04:13.990Z,1.90
2022-10-03T09:07:20.791Z,2.30
2022-10-03T09:10:22.990Z,2.20
2022-10-03T09:13:40.003Z,1.90
2022-10-03T09:16:51.367Z,2.00
2022-10-03T09:19:54.015Z,1.80
2022-10-03T09:23:05.076Z,1.90
2022-10-03T09:25:50.370Z,1.98
2022-10-03T09:28:51.794Z,1.95
2022-10-03T09:31:51.424Z,1.90
2022-10-03T09:34:55.497Z,1.80
2022-10-03T09:37:57.752Z,2.00
2022-10-03T09:41:17.195Z,1.90
2022-10-03T09:44:20.636Z,1.85
2022-10-03T09:47:28.335Z,2.10
2022-10-03T09:50:47.217Z,2.00
2022-10-03T09:53:54.644Z,2.30
2022-10-03T09:57:02.669Z,2.20
2022-10-03T09:59:56.825Z,2.10
2022-10-03T10:02:58.587Z,2.28
2022-10-03T10:06:06.494Z,2.28
2022-10-03T10:08:51.577Z,2.05
2022-10-03T10:11:35.032Z,2.00
2022-10-03T10:14:45.154Z,2.40
2022-10-03T10:17:56.320Z,2.10
2022-10-03T10:21:24.584Z,2.25
2022-10-03T10:24:05.796Z,1.88
2022-10-03T10:27:03.988Z,2.63
2022-10-03T10:33:25.425Z,1.75
2022-10-03T10:36:53.345Z,1.75
2022-10-03T10:39:58.172Z,1.63
2022-10-03T10:43:11.630Z,1.50
2022-10-03T10:46:04.792Z,1.17
2022-10-03T10:49:38.797Z,1.40
2022-10-03T10:52:48.228Z,1.83
2022-10-03T10:56:09.441Z,1.48
2022-10-03T10:59:20.332Z,1.42
2022-10-03T11:02:31.569Z,1.20
2022-10-03T11:05:36.484Z,1.42
2022-10-03T11:08:51.767Z,1.15
2022-10-03T11:12:04.200Z,1.33
2022-10-03T11:15:29.596Z,1.13
2022-10-03T11:18:32.475Z,0.98
2022-10-03T11:21:49.753Z,1.23
2022-10-03T11:25:06.123Z,1.20
2022-10-03T11:28:25.118Z,1.20
2022-10-03T11:31:28.201Z,1.20
2022-10-03T11:34:42.717Z,1.00
2022-10-03T11:37:25.464Z,1.23
2022-10-03T11:40:09.330Z,1.10
2022-10-03T11:42:56.275Z,1.00
2022-10-03T11:45:33.500Z,1.00
2022-10-03T11:48:23.651Z,1.00
2022-10-03T11:50:57.931Z,1.20
2022-10-03T11:53:46.896Z,0.95
2022-10-03T11:56:34.450Z,1.23
2022-10-03T11:59:27.046Z,1.05
2022-10-03T12:02:11.500Z,0.90
2022-10-03T12:04:49.609Z,1.15
2022-10-03T12:07:52.260Z,1.13
2022-10-03T12:10:39.282Z,1.00
2022-10-03T12:13:17.432Z,1.02
2022-10-03T12:15:50.305Z,1.23
2022-10-03T12:18:30.203Z,1.20
2022-10-03T12:21:10.803Z,1.10
2022-10-03T12:24:08.275Z,1.00
2022-10-03T12:26:49.501Z,1.30
2022-10-03T12:29:22.220Z,1.20
2022-10-03T12:32:03.029Z,1.10
2022-10-03T12:34:40.909Z,1.17
2022-10-03T12:37:45.689Z,1.05
2022-10-03T12:40:20.617Z,1.20
2022-10-03T12:43:02.620Z,0.90
2022-10-03T12:45:40.443Z,1.40
2022-10-03T12:48:27.544Z,1.05
2022-10-03T12:51:02.993Z,1.42
2022-10-03T12:53:41.936Z,1.27
2022-10-03T12:56:20.625Z,1.23
2022-10-03T12:59:03.065Z,1.20
2022-10-03T13:01:52.578Z,1.05
2022-10-03T13:04:33.813Z,1.10
2022-10-03T13:07:21.051Z,1.30
2022-10-03T13:10:07.812Z,1.27
2022-10-03T13:12:43.789Z,0.93
2022-10-03T13:15:53.009Z,1.10
2022-10-03T13:18:51.230Z,1.08
2022-10-03T13:21:45.458Z,1.15
2022-10-03T13:24:29.897Z,1.10
2022-10-03T13:27:07.141Z,1.13
2022-10-03T13:29:40.775Z,0.90
2022-10-03T13:32:22.849Z,0.88
2022-10-03T13:35:21.246Z,0.98
2022-10-03T13:38:37.241Z,1.25
2022-10-03T13:41:15.470Z,0.95
2022-10-03T13:43:51.544Z,1.00
2022-10-03T13:46:27.803Z,0.90
2022-10-03T13:49:02.309Z,0.90
2022-10-03T13:51:46.105Z,0.93
2022-10-03T13:54:24.001Z,0.93
2022-10-03T13:56:58.075Z,1.08
2022-10-03T13:59:48.803Z,1.20
2022-10-03T14:02:45.731Z,1.00
2022-10-03T14:05:31.686Z,0.90
2022-10-03T14:08:14.177Z,0.85
2022-10-03T14:11:22.631Z,0.98
2022-10-03T14:14:20.302Z,1.20
2022-10-03T14:16:55.904Z,1.13
2022-10-03T14:19:37.040Z,1.10
2022-10-03T14:22:23.031Z,1.30
2022-10-03T14:25:13.279Z,1.27
2022-10-03T14:27:51.460Z,1.10
2022-10-03T14:30:23.645Z,1.00
2022-10-03T14:33:03.743Z,1.30
2022-10-03T14:35:40.757Z,1.13
2022-10-03T14:38:22.913Z,1.10
2022-10-03T14:41:03.185Z,1.25
2022-10-03T14:43:40.422Z,1.00
2022-10-03T14:46:12.006Z,0.90
2022-10-03T14:48:45.264Z,0.70
2022-10-03T14:51:21.240Z,0.65
2022-10-03T14:53:57.489Z,0.88
2022-10-03T14:56:28.675Z,1.08
2022-10-03T14:59:01.082Z,1.02
2022-10-03T15:01:31.058Z,1.00
2022-10-03T15:04:06.353Z,0.90
2022-10-03T15:06:50.558Z,0.93
2022-10-03T15:09:23.680Z,0.70
2022-10-03T15:12:00.633Z,0.98
2022-10-03T15:14:32.691Z,0.90
2022-10-03T15:17:06.127Z,0.80
2022-10-03T15:19:39.660Z,0.90
2022-10-03T15:22:24.834Z,0.95
2022-10-03T15:24:57.363Z,0.90
2022-10-03T15:27:29.650Z,0.90
2022-10-03T15:30:02.933Z,1.00
2022-10-03T15:32:40.239Z,1.20
2022-10-03T15:35:17.310Z,0.85
2022-10-03T15:37:48.561Z,0.77
2022-10-03T15:40:31.803Z,1.05
2022-10-03T15:43:32.048Z,0.80
2022-10-03T15:46:05.634Z,0.80
2022-10-03T15:48:36.097Z,0.77
2022-10-03T15:51:08.559Z,0.80
2022-10-03T15:53:39.677Z,1.10
2022-10-03T15:56:15.552Z,0.85
2022-10-03T15:58:52.028Z,0.82
2022-10-03T16:01:24.471Z,0.90
2022-10-03T16:03:58.209Z,0.60
2022-10-03T16:06:36.051Z,0.85
2022-10-03T16:09:11.845Z,1.30
2022-10-03T16:11:52.561Z,1.25
2022-10-03T16:14:28.465Z,1.10
2022-10-03T16:17:01.080Z,0.77
2022-10-03T16:19:40.287Z,0.80
2022-10-03T16:22:20.918Z,1.10
2022-10-03T16:25:04.066Z,1.20
2022-10-03T16:27:36.083Z,1.00
2022-10-03T16:30:24.475Z,1.48
2022-10-03T16:33:05.093Z,1.00
2022-10-03T16:35:42.739Z,1.17
2022-10-03T16:38:22.032Z,1.00
2022-10-03T16:40:57.894Z,1.10
2022-10-03T16:43:28.091Z,0.82
2022-10-03T16:46:02.750Z,0.88
2022-10-03T16:48:52.840Z,1.00
2022-10-03T16:51:25.027Z,1.20
2022-10-03T16:53:57.005Z,1.30
2022-10-03T16:56:31.621Z,0.90
2022-10-03T16:59:06.622Z,1.20
2022-10-03T17:01:42.545Z,1.10
2022-10-03T17:04:22.537Z,0.90
2022-10-03T17:06:54.113Z,1.00
2022-10-03T17:09:38.232Z,1.25
2022-10-03T17:12:14.430Z,1.40
2022-10-03T17:14:45.019Z,1.25
2022-10-03T17:17:28.691Z,1.15
2022-10-03T17:20:04.572Z,1.00
2022-10-03T17:22:39.400Z,1.10
2022-10-03T17:25:30.337Z,1.13
2022-10-03T17:28:01.270Z,1.23
2022-10-03T17:30:36.166Z,0.85
2022-10-03T17:33:11.673Z,1.00
2022-10-03T17:35:50.489Z,1.10
2022-10-03T17:38:48.932Z,1.02
2022-10-03T17:41:23.907Z,1.00
2022-10-03T17:44:05.028Z,1.20
2022-10-03T17:46:43.501Z,0.90
2022-10-03T17:49:23.904Z,1.00
2022-10-03T17:51:56.657Z,0.90
2022-10-03T17:54:30.013Z,1.30
2022-10-03T17:57:06.086Z,0.90
2022-10-03T17:59:44.564Z,0.93
2022-10-03T18:02:22.046Z,1.15
2022-10-03T18:05:08.038Z,1.08
2022-10-03T18:07:38.730Z,0.93
2022-10-03T18:10:21.450Z,0.90
2022-10-03T18:12:54.576Z,0.95
2022-10-03T18:15:49.050Z,0.90
2022-10-03T18:18:47.978Z,1.00
2022-10-03T18:21:33.056Z,0.90
2022-10-03T18:24:20.553Z,2.10
2022-10-03T18:26:56.503Z,1.10
2022-10-03T18:29:32.430Z,0.90
2022-10-03T18:32:13.941Z,0.80
2022-10-03T18:34:48.570Z,0.90
2022-10-03T18:37:50.063Z,1.30
2022-10-03T18:40:24.576Z,1.13
2022-10-03T18:42:54.834Z,0.93
2022-10-03T18:45:29.250Z,0.90
2022-10-03T18:48:06.113Z,0.80
2022-10-03T18:50:46.397Z,0.90
2022-10-03T18:53:20.918Z,1.00
2022-10-03T18:55:58.568Z,0.90
2022-10-03T18:58:31.669Z,0.90
2022-10-03T19:01:06.525Z,0.73
2022-10-03T19:03:39.952Z,0.90
2022-10-03T19:06:19.427Z,0.63
2022-10-03T19:08:52.918Z,0.90
2022-10-03T19:11:30.880Z,1.00
2022-10-03T19:14:08.242Z,0.70
2022-10-03T19:17:08.256Z,1.00
2022-10-03T19:19:53.192Z,0.80
2022-10-03T19:22:33.600Z,1.02
2022-10-03T19:25:05.057Z,0.77
2022-10-03T19:27:49.847Z,0.70
2022-10-03T19:30:21.987Z,0.70
2022-10-03T19:32:56.940Z,0.93
2022-10-03T19:35:27.976Z,0.82
2022-10-03T19:38:02.045Z,0.98
2022-10-03T19:40:54.690Z,0.90
2022-10-03T19:43:53.311Z,0.90
2022-10-03T19:46:53.738Z,0.80
2022-10-03T19:49:41.353Z,0.70
2022-10-03T19:52:32.126Z,0.80
2022-10-03T19:55:12.521Z,0.90
2022-10-03T19:57:50.499Z,1.10
2022-10-03T20:00:30.651Z,0.85
2022-10-03T20:03:12.952Z,0.70
2022-10-03T20:05:51.426Z,0.60
2022-10-03T20:08:27.871Z,0.75
2022-10-03T20:11:07.407Z,0.70
2022-10-03T20:13:42.576Z,0.77
2022-10-03T20:16:16.831Z,0.68
2022-10-03T20:18:48.943Z,0.50
2022-10-03T20:21:22.242Z,0.80
2022-10-03T20:23:53.273Z,0.90
2022-10-03T20:26:29.901Z,0.77
2022-10-03T20:29:26.894Z,0.70
2022-10-03T20:32:03.021Z,0.88
2022-10-03T20:34:34.622Z,1.15
2022-10-03T20:37:27.770Z,1.00
2022-10-03T20:40:04.396Z,1.00
2022-10-03T20:42:34.373Z,0.98
2022-10-03T20:45:05.313Z,0.70
2022-10-03T20:47:57.793Z,0.70
2022-10-03T20:50:31.008Z,1.10
2022-10-03T20:53:01.904Z,0.80
2022-10-03T20:55:34.663Z,0.82
2022-10-03T20:58:14.101Z,0.82
2022-10-03T21:00:48.145Z,1.00
2022-10-03T21:03:28.345Z,0.80
2022-10-03T21:06:00.802Z,0.77
2022-10-03T21:08:36.208Z,0.70
2022-10-03T21:11:15.579Z,0.90
2022-10-03T21:13:49.904Z,1.10
2022-10-03T21:16:22.687Z,1.10
2022-10-03T21:18:57.456Z,0.80
2022-10-03T21:21:31.569Z,0.90
2022-10-03T21:24:07.066Z,0.98
2022-10-03T21:26:44.292Z,0.85
2022-10-03T21:29:18.219Z,0.93
2022-10-03T21:31:55.089Z,1.13
2022-10-03T21:34:32.525Z,0.80
2022-10-03T21:37:11.878Z,0.90
2022-10-03T21:39:53.728Z,0.90
2022-10-03T21:42:28.515Z,1.08
2022-10-03T21:45:15.590Z,1.02
2022-10-03T21:47:49.663Z,1.00
2022-10-03T21:50:24.131Z,1.00
2022-10-03T21:53:14.237Z,0.98
2022-10-03T21:56:01.842Z,1.10
2022-10-03T21:58:58.183Z,0.88
2022-10-03T22:01:36.043Z,1.00
2022-10-03T22:04:11.320Z,1.05
2022-10-03T22:06:50.090Z,0.80
2022-10-03T22:09:19.267Z,1.08
2022-10-03T22:11:54.192Z,1.00
2022-10-03T22:14:32.559Z,1.00
2022-10-03T22:17:09.274Z,1.10
2022-10-03T22:19:43.348Z,0.73
2022-10-03T22:22:22.848Z,1.00
2022-10-03T22:25:05.683Z,0.95
2022-10-03T22:27:42.627Z,1.00
2022-10-03T22:30:15.444Z,1.02
2022-10-03T22:32:57.395Z,0.88
2022-10-03T22:35:44.960Z,1.20
2022-10-03T22:38:16.444Z,1.00
2022-10-03T22:40:47.958Z,1.00
2022-10-03T22:43:17.580Z,1.00
2022-10-03T22:45:50.493Z,1.00
2022-10-03T22:48:24.801Z,0.90
2022-10-03T22:50:55.423Z,1.10
2022-10-03T22:53:32.298Z,0.80
2022-10-03T22:56:04.513Z,0.90
2022-10-03T22:58:33.810Z,0.80
2022-10-03T23:01:04.263Z,0.90
2022-10-03T23:03:35.677Z,0.90
2022-10-03T23:06:30.792Z,1.13
2022-10-03T23:09:13.584Z,0.82
2022-10-03T23:11:48.026Z,1.20
2022-10-03T23:14:25.120Z,1.20
2022-10-03T23:16:57.084Z,0.98
2022-10-03T23:19:36.999Z,0.82
2022-10-03T23:22:13.938Z,1.00
2022-10-03T23:24:49.241Z,1.08
2022-10-03T23:27:50.159Z,0.80
2022-10-03T23:30:46.487Z,0.88
2022-10-03T23:33:53.171Z,0.90
2022-10-03T23:36:25.634Z,0.93
2022-10-03T23:38:59.956Z,0.80
2022-10-03T23:41:57.566Z,1.10
2022-10-03T23:44:32.785Z,1.10
2022-10-03T23:47:02.958Z,0.98
2022-10-03T23:49:33.239Z,1.05
2022-10-03T23:52:02.996Z,1.20
2022-10-03T23:54:33.302Z,1.00
2022-10-03T23:57:08.858Z,1.02
2022-10-03T23:59:40.011Z,0.95
